M I D A S
Marine Information and Data Acquisition System
Tripno 762 of the Zeeleeuw from 2004-08-16 06:43:36 to 2004-08-16 14:54:04
Back to CruiseResearch ActivitiesStationsMapUnderway DataData graphs

EquipmentUnitsComment
TimeDGPSUTC
LatitudeDGPSDM.mWGS84
LongitudeDGPSDM.mWGS84
HeadingGyrodeg 
SOGDGPSknotsSpeed over ground
COGDGPSdegCourse over ground
DepthEcho soundermeters200 kHz
Missing or incorrect values are displayed as -999
Navigation data collected by the RV Zeeleeuw from 2004-08-16 06:43:36 to 2004-08-16 14:54:04
                                                                                    Next 1000 lines
Time Latitude Longitude Heading SOG COG Depth
2004-08-16 06:43:47 51°13.595 2°56.115 125.7   359 6.5
2004-08-16 06:43:53 51°13.595 2°56.115 126.1   232 6.7
2004-08-16 06:43:57 51°13.595 2°56.115 126.6   207 6.7
2004-08-16 06:44:00 51°13.595 2°56.115 127.1   213 6.8
2004-08-16 06:44:05 51°13.595 2°56.115 127.4   180 5.8
2004-08-16 06:44:12 51°13.595 2°56.115 127.5   201 7.1
2004-08-16 06:44:17 51°13.595 2°56.115 127.6   225 7.1
2004-08-16 06:44:21 51°13.595 2°56.115 127.8   237 6.2
2004-08-16 06:44:28 51°13.595 2°56.115 128 0.1 232 5.8
2004-08-16 06:44:31 51°13.595 2°56.115 128.4   244 6.9
2004-08-16 06:44:37 51°13.595 2°56.115 128.7   215 6.6
2004-08-16 06:44:41 51°13.595 2°56.114 128.9   183 6.5
2004-08-16 06:44:47 51°13.595 2°56.115 129   89 6.1
2004-08-16 06:44:52 51°13.596 2°56.115 129   62 6.6
2004-08-16 06:44:56 51°13.596 2°56.115 129   110 6.1
2004-08-16 06:45:01 51°13.595 2°56.115 128.6   142 7.2
2004-08-16 06:45:08 51°13.595 2°56.115 128   151 6.4
2004-08-16 06:45:12 51°13.595 2°56.115 127.3   137 6
2004-08-16 06:45:16 51°13.595 2°56.115 126.5   119 5.8
2004-08-16 06:45:21 51°13.595 2°56.115 125.5 0.1 97 6.3
2004-08-16 06:45:24 51°13.595 2°56.115 124.3 0.1 85 5.6
2004-08-16 06:45:32 51°13.595 2°56.115 122.9   140 7
2004-08-16 06:45:41 51°13.595 2°56.115 121.2 0.1 179 6.2
2004-08-16 06:45:48 51°13.595 2°56.115 120.4 0.1 177 6
2004-08-16 06:45:52 51°13.595 2°56.115 119.8 0.1 180 6.3
2004-08-16 06:45:58 51°13.595 2°56.115 119.1 0.1 177 6.2
2004-08-16 06:46:01 51°13.595 2°56.115 118.5 0.1 179 7.1
2004-08-16 06:46:06 51°13.595 2°56.115 117.9   181 7.2
2004-08-16 06:46:13 51°13.594 2°56.115 117.2   187 7
2004-08-16 06:46:16 51°13.594 2°56.115 116.7   195 7
2004-08-16 06:46:20 51°13.594 2°56.115 116.2 0.1 343 6.5
2004-08-16 06:46:28 51°13.595 2°56.114 116.1 0.1 324 7.1
2004-08-16 06:46:30 51°13.595 2°56.114 116.6 0.7 308 7
2004-08-16 06:46:36 51°13.596 2°56.112 117.3 1 297 6.8
2004-08-16 06:46:40 51°13.596 2°56.11 117.8 1.3 303 5.7
2004-08-16 06:46:44 51°13.597 2°56.108 117.8 1.7 296 5.7
2004-08-16 06:46:53 51°13.6 2°56.101 117.4 2.2 301 6.5
2004-08-16 06:47:00 51°13.602 2°56.094 117.4 2.4 296 -999
2004-08-16 06:47:05 51°13.604 2°56.088 117.8 2.9 298 -999
2004-08-16 06:47:08 51°13.605 2°56.084 118 3.1 297 -999
2004-08-16 06:47:15 51°13.608 2°56.075 118.2 3.3 299 -999
2004-08-16 06:47:20 51°13.61 2°56.068 118.1 3.6 298 -999
2004-08-16 06:47:25 51°13.613 2°56.06 117.9 3.8 298 5.1
2004-08-16 06:47:28 51°13.614 2°56.055 117.6 4 298 5
2004-08-16 06:47:33 51°13.617 2°56.048 117.1 4.1 297 5.2
2004-08-16 06:47:40 51°13.621 2°56.036 116.4 4.1 297 5.2
2004-08-16 06:47:45 51°13.623 2°56.028 115.5 4.2 296 7.6
2004-08-16 06:47:48 51°13.625 2°56.023 114.9 4 294 7.6
2004-08-16 06:47:55 51°13.628 2°56.012 114.3 3.8 294 8
2004-08-16 06:47:59 51°13.629 2°56.006 113.4 3.7 293 6.8
2004-08-16 06:48:04 51°13.631 2°56 112.5 2.7 294 7.2
2004-08-16 06:48:09 51°13.632 2°55.996 112.3 1.9 294 6.6
2004-08-16 06:48:12 51°13.632 2°55.995 112.8 1.2 299 6.2
2004-08-16 06:48:18 51°13.633 2°55.993 115 0.8 298 6.9
2004-08-16 06:48:24 51°13.634 2°55.991 117.7 1 301 7.2
2004-08-16 06:48:29 51°13.635 2°55.988 119.2 1.4 301 6.7
2004-08-16 06:48:32 51°13.635 2°55.986 119.5 1.7 298 8.8
2004-08-16 06:48:39 51°13.637 2°55.982 118.9 1.7 298 8.2
2004-08-16 06:48:41 51°13.637 2°55.98 117.7 1.3 295 9.3
2004-08-16 06:48:48 51°13.638 2°55.977 116.6 0.7 297 8.3
2004-08-16 06:48:59 51°13.638 2°55.979 117.8 0.4 114 9.3
2004-08-16 06:49:04 51°13.638 2°55.98 120.7 0.4 121 8.9
2004-08-16 06:49:09 51°13.638 2°55.98 123.4 0.1 315 7.3
2004-08-16 06:49:13 51°13.638 2°55.979 125 0.5 299 9.3
2004-08-16 06:49:20 51°13.64 2°55.976 125.3 1 305 8.2
2004-08-16 06:49:25 51°13.641 2°55.973 124.8 1.7 300 9.4
2004-08-16 06:49:29 51°13.642 2°55.969 124.6 2.1 300 7.8
2004-08-16 06:49:34 51°13.644 2°55.964 124.6 2.5 299 4.8
2004-08-16 06:49:40 51°13.646 2°55.957 124.9 2.8 299 -999
2004-08-16 06:49:45 51°13.648 2°55.951 125 3.2 300 -999
2004-08-16 06:49:50 51°13.651 2°55.945 124.9 3.3 300 -999
2004-08-16 06:49:54 51°13.653 2°55.939 124.3 3.6 299 -999
2004-08-16 06:49:59 51°13.655 2°55.932 124.1 3.7 300 -999
2004-08-16 06:50:05 51°13.659 2°55.923 124.1 4 301 -999
2004-08-16 06:50:10 51°13.662 2°55.915 124.1 4.1 301 -999
2004-08-16 06:50:15 51°13.665 2°55.907 124.1 4.2 301 -999
2004-08-16 06:50:20 51°13.668 2°55.899 123.8 4.3 302 -999
2004-08-16 06:50:25 51°13.671 2°55.89 123.1 4.5 302 -999
2004-08-16 06:50:30 51°13.675 2°55.882 122.5 4.5 301 -999
2004-08-16 06:50:35 51°13.678 2°55.873 121.7 4.5 301 4.9
2004-08-16 06:50:40 51°13.681 2°55.864 121 4.6 301 9.8
2004-08-16 06:50:45 51°13.684 2°55.855 119.9 4.6 300 -999
2004-08-16 06:50:49 51°13.687 2°55.848 119 4.6 300 9.3
2004-08-16 06:50:53 51°13.689 2°55.841 117.4 4.6 298 9.3
2004-08-16 06:50:59 51°13.693 2°55.831 115.5 4.5 297 9.5
2004-08-16 06:51:05 51°13.696 2°55.82 113.9 4.5 294 9.4
2004-08-16 06:51:08 51°13.697 2°55.814 111.3 4.5 293 10.2
2004-08-16 06:51:13 51°13.699 2°55.805 109 4.5 291 11
2004-08-16 06:51:20 51°13.702 2°55.792 107.3 4.4 290 11.5
2004-08-16 06:51:24 51°13.704 2°55.785 104.5 4.1 288 12
2004-08-16 06:51:28 51°13.705 2°55.779 102.9 3.9 287 12.1
2004-08-16 06:51:33 51°13.706 2°55.771 100.6 3.8 285 12.6
2004-08-16 06:51:40 51°13.708 2°55.76 99.1 3.6 286 12.7
2004-08-16 06:51:44 51°13.709 2°55.755 96.8 3 284 12.6
2004-08-16 06:51:49 51°13.71 2°55.749 95 2.7 283 12.5
2004-08-16 06:51:51 51°13.71 2°55.747 91.8 2.3 283 11.1
2004-08-16 06:52:00 51°13.711 2°55.739 89.5 1.9 284 11.4
2004-08-16 06:52:04 51°13.712 2°55.737 86.9 1.3 292 11.2
2004-08-16 06:52:09 51°13.712 2°55.735 84.1 0.9 304 11.2
2004-08-16 06:52:14 51°13.713 2°55.734 79.6 0.7 343 11
2004-08-16 06:52:17 51°13.714 2°55.734 72.6 0.8 7 10.7
2004-08-16 06:52:25 51°13.716 2°55.735 66.2 1 20 9
2004-08-16 06:52:28 51°13.717 2°55.736 59.1 1.1 13 9.7
2004-08-16 06:52:33 51°13.719 2°55.736 52.9 0.9 355 7.5
2004-08-16 06:52:40 51°13.72 2°55.733 48 0.6 306 8.9
2004-08-16 06:52:45 51°13.72 2°55.731 43.1 0.9 268 9.3
2004-08-16 06:52:49 51°13.72 2°55.729 39.2 1.1 250 9.4
2004-08-16 06:52:54 51°13.719 2°55.726 33.8 1.3 241 9.6
2004-08-16 06:52:57 51°13.718 2°55.725 30.4 1.6 225 9.5
2004-08-16 06:53:05 51°13.715 2°55.721 25.8 1.9 216 10.2
2004-08-16 06:53:10 51°13.712 2°55.719 22.3 1.8 213 4.8
2004-08-16 06:53:20 51°13.708 2°55.715 17 1.5 211 10.9
2004-08-16 06:53:25 51°13.708 2°55.715 14.2 0.3 294 11.1
2004-08-16 06:53:27 51°13.709 2°55.715 10.5 0.9 336 11.1
2004-08-16 06:53:33 51°13.711 2°55.714 3.6 1.6 346 10.6
2004-08-16 06:53:40 51°13.716 2°55.711 355.5 2 341 10.3
2004-08-16 06:53:42 51°13.717 2°55.71 348.3 2.7 339 10.9
2004-08-16 06:53:49 51°13.722 2°55.707 344.1 3.2 334 10.4
2004-08-16 06:53:53 51°13.726 2°55.704 340.6 3.7 333 9.3
2004-08-16 06:54:00 51°13.734 2°55.698 339 4.1 332 9.7
2004-08-16 06:54:02 51°13.736 2°55.696 339 4.8 332 8.9
2004-08-16 06:54:09 51°13.745 2°55.688 339.2 5.1 332 7.8
2004-08-16 06:54:13 51°13.75 2°55.684 340 5.4 334 9.2
2004-08-16 06:54:20 51°13.76 2°55.676 340.7 5.8 333 8.4
2004-08-16 06:54:21 51°13.761 2°55.674 340.1 6.2 333 9.1
2004-08-16 06:54:29 51°13.774 2°55.664 339.6 6.4 333 9.6
2004-08-16 06:54:32 51°13.779 2°55.66 339.5 6.8 333 -999
2004-08-16 06:54:39 51°13.791 2°55.65 339.6 7 334 9.5
2004-08-16 06:54:48 51°13.807 2°55.638 340.4 7.4 335 9.9
2004-08-16 06:54:56 51°13.822 2°55.627 341.1 7.6 336 9.4
2004-08-16 06:55:04 51°13.838 2°55.617 341.8 7.8 337 9.7
2004-08-16 06:55:09 51°13.848 2°55.61 342.1 7.9 338 9.6
2004-08-16 06:55:13 51°13.857 2°55.605 342.3 8 338 9.8
2004-08-16 06:55:20 51°13.871 2°55.595 342.4 8.1 338 9.8
2004-08-16 06:55:25 51°13.882 2°55.589 342.4 8.2 338 9.1
2004-08-16 06:55:28 51°13.888 2°55.584 342.2 8.2 337 8.7
2004-08-16 06:55:34 51°13.901 2°55.577 342.3 8.2 338 8.7
2004-08-16 06:55:39 51°13.912 2°55.57 342.5 8.3 337 8.5
2004-08-16 06:55:44 51°13.922 2°55.563 342 8.3 337 8.2
2004-08-16 06:55:49 51°13.933 2°55.555 341.6 8.3 337 7.8
2004-08-16 06:55:51 51°13.937 2°55.552 341.4 8.4 337 8.8
2004-08-16 06:56:00 51°13.957 2°55.539 341.9 8.4 338 10
2004-08-16 06:56:04 51°13.966 2°55.534 342.1 8.5 337 10.2
2004-08-16 06:56:09 51°13.977 2°55.526 341.9 8.5 338 9.8
2004-08-16 06:56:13 51°13.985 2°55.521 341.9 8.5 338 10.9
2004-08-16 06:56:19 51°13.998 2°55.512 341.7 8.5 337 10.9
2004-08-16 06:56:24 51°14.009 2°55.504 340.6 8.6 336 10.4
2004-08-16 06:56:28 51°14.018 2°55.498 340.4 8.7 337 10.4
2004-08-16 06:56:32 51°14.027 2°55.492 340.5 8.7 336 9.9
2004-08-16 06:56:38 51°14.04 2°55.483 340.5 8.8 337 9.7
2004-08-16 06:56:44 51°14.054 2°55.473 341.1 8.9 336 10
2004-08-16 06:56:49 51°14.065 2°55.465 341.1 9 336 8.4
2004-08-16 06:56:53 51°14.075 2°55.458 340.7 9.1 336 9.8
2004-08-16 06:56:58 51°14.086 2°55.449 340.5 9.3 336 9.3
2004-08-16 06:57:04 51°14.1 2°55.439 340.7 9.5 335 10.1
2004-08-16 06:57:09 51°14.112 2°55.43 340.4 9.7 334 10.1
2004-08-16 06:57:11 51°14.117 2°55.426 339.2 9.9 333 9.9
2004-08-16 06:57:20 51°14.139 2°55.407 338.5 10 333 10.8
2004-08-16 06:57:21 51°14.142 2°55.405 337.5 10.1 332 11
2004-08-16 06:57:32 51°14.169 2°55.382 336.4 10.2 331 10.9
2004-08-16 06:57:36 51°14.179 2°55.372 335.6 10.3 328 10.7
2004-08-16 06:57:41 51°14.19 2°55.359 333.7 10.4 327 10.1
2004-08-16 06:57:46 51°14.202 2°55.346 331.1 10.5 324 10.6
2004-08-16 06:57:49 51°14.209 2°55.337 329.5 10.6 324 10.4
2004-08-16 06:57:56 51°14.226 2°55.317 328.4 10.8 321 10.6
2004-08-16 06:58:00 51°14.235 2°55.304 326.3 10.9 319 10.7
2004-08-16 06:58:04 51°14.244 2°55.291 323.5 11 317 -999
2004-08-16 06:58:12 51°14.261 2°55.263 321 11.1 314 9.8
2004-08-16 06:58:17 51°14.271 2°55.245 318.6 11.2 311 10.2
2004-08-16 06:58:20 51°14.278 2°55.233 316.8 11.3 311 10.2
2004-08-16 06:58:25 51°14.288 2°55.214 316 11.4 311 10.2
2004-08-16 06:58:31 51°14.3 2°55.19 315.7 11.6 309 8.8
2004-08-16 06:58:37 51°14.312 2°55.166 314.1 11.8 308 10
2004-08-16 06:58:41 51°14.32 2°55.149 313 11.8 308 9.8
2004-08-16 06:58:44 51°14.326 2°55.136 312.8 11.9 307 9.9
2004-08-16 06:58:50 51°14.339 2°55.111 312.8 12 308 9.8
2004-08-16 06:58:56 51°14.351 2°55.086 312.8 12.2 309 9.3
2004-08-16 06:59:01 51°14.362 2°55.065 313.3 12.4 309 9.7
2004-08-16 06:59:04 51°14.369 2°55.052 314.2 12.6 310 10
2004-08-16 06:59:12 51°14.387 2°55.017 315.1 12.8 310 9.8
2004-08-16 06:59:16 51°14.397 2°55 315.5 13 311 9.7
2004-08-16 06:59:21 51°14.409 2°54.978 315.9 13.2 311 8.6
2004-08-16 06:59:26 51°14.421 2°54.957 317.4 13.3 314 10.1
2004-08-16 06:59:31 51°14.435 2°54.936 319.9 13.3 316 9.7
2004-08-16 06:59:36 51°14.449 2°54.917 322.7 13.3 320 9.6
2004-08-16 06:59:41 51°14.463 2°54.899 325.9 13.3 322 9.3
2004-08-16 06:59:46 51°14.478 2°54.882 329.4 13.3 326 9
2004-08-16 06:59:52 51°14.497 2°54.865 332.9 13.2 327 9
2004-08-16 06:59:56 51°14.51 2°54.854 336.5 13.1 331 8.8
2004-08-16 07:00:01 51°14.526 2°54.84 338.8 13.1 332 8.8
2004-08-16 07:00:06 51°14.543 2°54.827 340.3 13.1 334 8.8
2004-08-16 07:00:12 51°14.562 2°54.812 341.5 13.1 334 8.8
2004-08-16 07:00:17 51°14.579 2°54.8 342.6 13.1 336 8.8
2004-08-16 07:00:20 51°14.589 2°54.793 343.5 13.1 336 8.7
2004-08-16 07:00:24 51°14.602 2°54.784 344.3 13.1 337 8.6
2004-08-16 07:00:32 51°14.629 2°54.766 344.8 13.1 336 8.5
2004-08-16 07:00:36 51°14.642 2°54.757 345.3 12.9 338 8.4
2004-08-16 07:00:40 51°14.656 2°54.749 346.7 12.9 340 8.4
2004-08-16 07:00:44 51°14.669 2°54.741 348.2 12.9 340 8.4
2004-08-16 07:00:53 51°14.7 2°54.726 350.2 12.9 342 8.4
2004-08-16 07:00:59 51°14.72 2°54.715 351.1 12.9 343 8.5
2004-08-16 07:01:04 51°14.737 2°54.707 351.8 12.9 344 8.5
2004-08-16 07:01:08 51°14.751 2°54.701 352.3 12.9 344 8.4
2004-08-16 07:01:14 51°14.772 2°54.691 352.5 12.9 344 8.3
2004-08-16 07:01:19 51°14.789 2°54.683 352.3 12.8 343 8.2
2004-08-16 07:01:24 51°14.806 2°54.675 351.7 12.8 343 8.3
2004-08-16 07:01:29 51°14.823 2°54.667 351.6 12.8 344 8.2
2004-08-16 07:01:42 51°14.868 2°54.65 354.1 12.8 348 8.2
2004-08-16 07:01:48 51°14.889 2°54.643 355.3 12.8 348 8.2
2004-08-16 07:01:53 51°14.906 2°54.637 356.1 12.7 349 8.2
2004-08-16 07:01:54 51°14.91 2°54.636 357 12.7 350 7.8
2004-08-16 07:02:06 51°14.951 2°54.624 357.8 12.7 349 8
2004-08-16 07:02:12 51°14.972 2°54.618 357.3 12.7 349 7.7
2004-08-16 07:02:17 51°14.989 2°54.612 356.6 12.6 348 7.6
2004-08-16 07:02:21 51°15.003 2°54.607 356.3 12.6 347 7.5
2004-08-16 07:02:26 51°15.02 2°54.6 355.5 12.5 347 7.5
2004-08-16 07:02:32 51°15.04 2°54.592 355 12.4 346 7.2
2004-08-16 07:02:37 51°15.056 2°54.585 354 12.3 344 7.1
2004-08-16 07:02:41 51°15.069 2°54.578 352.7 12.3 343 7.1
2004-08-16 07:02:46 51°15.085 2°54.57 351.3 12.2 341 7
2004-08-16 07:02:52 51°15.104 2°54.558 350.1 12.2 340 7.1
2004-08-16 07:02:56 51°15.116 2°54.549 347.6 12.3 336 7.1
2004-08-16 07:03:00 51°15.129 2°54.539 344.9 12.3 334 7.2
2004-08-16 07:03:05 51°15.144 2°54.526 342.7 12.4 333 7.2
2004-08-16 07:03:12 51°15.165 2°54.508 341.1 12.5 331 7.3
2004-08-16 07:03:16 51°15.177 2°54.497 340.2 12.6 331 7.4
2004-08-16 07:03:21 51°15.193 2°54.484 339.7 12.6 331 7.4
2004-08-16 07:03:25 51°15.205 2°54.473 339.6 12.6 332 7.5
2004-08-16 07:03:32 51°15.227 2°54.455 339.8 12.7 333 7.5
2004-08-16 07:03:35 51°15.236 2°54.448 340.9 12.7 335 7.6
2004-08-16 07:03:44 51°15.265 2°54.428 345 12.7 339 7.8
2004-08-16 07:03:52 51°15.292 2°54.414 347.3 12.7 342 5.7
2004-08-16 07:03:56 51°15.306 2°54.409 350.5 12.6 346 7.9
2004-08-16 07:04:00 51°15.32 2°54.404 353.8 12.6 348 7.9
2004-08-16 07:04:04 51°15.333 2°54.4 356.3 12.6 349 8
2004-08-16 07:04:12 51°15.361 2°54.392 357.6 12.6 350 8
2004-08-16 07:04:13 51°15.364 2°54.392 359 12.6 350 8.1
2004-08-16 07:04:24 51°15.402 2°54.381 359 12.7 350 8.1
2004-08-16 07:04:28 51°15.416 2°54.376 358.3 12.8 347 8.2
2004-08-16 07:04:33 51°15.434 2°54.369 356.9 12.8 346 8.2
2004-08-16 07:04:38 51°15.451 2°54.361 355.1 12.8 344 8.3
2004-08-16 07:04:44 51°15.471 2°54.349 352.4 12.9 341 8.4
2004-08-16 07:04:48 51°15.484 2°54.341 349.8 12.9 338 8.5
2004-08-16 07:04:54 51°15.504 2°54.328 348 12.9 338 8.3
2004-08-16 07:04:56 51°15.51 2°54.323 346.7 12.9 338 8.6
2004-08-16 07:05:05 51°15.541 2°54.306 349 12.9 342 8.7
2004-08-16 07:05:09 51°15.555 2°54.301 351.9 13 345 8.7
2004-08-16 07:05:20 51°15.594 2°54.287 356.7 12.9 350 8.9
2004-08-16 07:05:28 51°15.622 2°54.28 358.5 12.9 350 8.9
2004-08-16 07:05:31 51°15.632 2°54.277   12.8 351 9
2004-08-16 07:05:36 51°15.65 2°54.272 0.2 12.8 350 8.8
2004-08-16 07:05:41 51°15.667 2°54.267 359.8 12.8 350 9.1
2004-08-16 07:05:48 51°15.692 2°54.259 359 12.9 348 9.2
2004-08-16 07:05:50 51°15.699 2°54.256 356.9 13 346 9.2
2004-08-16 07:05:57 51°15.723 2°54.246 355.6 13 345 9.3
2004-08-16 07:06:02 51°15.741 2°54.238 354.4 13 345 9.4
2004-08-16 07:06:05 51°15.751 2°54.233 354.1 13 344 9.5
2004-08-16 07:06:13 51°15.779 2°54.222 354 13 346 9.6
2004-08-16 07:06:16 51°15.79 2°54.218 354.8 13 347 9.6
2004-08-16 07:06:20 51°15.804 2°54.214 356.8 12.9 350 9.8
2004-08-16 07:06:28 51°15.832 2°54.207 359.2 12.9 351 9.5
2004-08-16 07:06:30 51°15.839 2°54.206 1.5 12.8 353 9.7
2004-08-16 07:06:37 51°15.864 2°54.201 2.6 12.8 353 9.9
2004-08-16 07:06:40 51°15.875 2°54.199 2.9 12.8 352 9.3
2004-08-16 07:06:46 51°15.896 2°54.194 2.3 12.8 351 9.9
2004-08-16 07:06:53 51°15.919 2°54.187 1.5 12.2 349 9.3
2004-08-16 07:06:56 51°15.929 2°54.183   11.7 348 10
2004-08-16 07:07:00 51°15.941 2°54.179 358.5 11.3 347 10.1
2004-08-16 07:07:07 51°15.961 2°54.17 357 10.7 344 10.2
2004-08-16 07:07:12 51°15.975 2°54.164 355.6 10 343 10.3
2004-08-16 07:07:17 51°15.988 2°54.157 354.4 9.6 342 10.4
2004-08-16 07:07:21 51°15.997 2°54.151 352.9 9.2 340 10.4
2004-08-16 07:07:27 51°16.011 2°54.143 352.1 8.9 340 10.5
2004-08-16 07:07:31 51°16.02 2°54.138 351.5 8.5 341 10.6
2004-08-16 07:07:37 51°16.033 2°54.131 352 8.3 342 10.6
2004-08-16 07:07:43 51°16.046 2°54.126 353.9 7.9 346 10.5
2004-08-16 07:07:46 51°16.052 2°54.123 356.9 7.8 347 10.6
2004-08-16 07:07:53 51°16.066 2°54.122 0.8 7.2 357 10.6
2004-08-16 07:07:58 51°16.076 2°54.123 6.9 6.9 1 10.6
2004-08-16 07:08:02 51°16.083 2°54.124 13.8 6.6 6 10.6
2004-08-16 07:08:08 51°16.094 2°54.127 17 6.5 9 10.7
2004-08-16 07:08:10 51°16.098 2°54.128 20.7 6.4 13 10.7
2004-08-16 07:08:21 51°16.116 2°54.136 26.2 6.2 18 10.7
2004-08-16 07:08:27 51°16.125 2°54.142 29 6.1 21 10.7
2004-08-16 07:08:33 51°16.134 2°54.149 31.7 6 26 10.8
2004-08-16 07:08:36 51°16.139 2°54.153 33.8 6 27 10.6
2004-08-16 07:08:40 51°16.145 2°54.158 36.8 6 29 10.8
2004-08-16 07:08:48 51°16.156 2°54.169 38.9 5.9 32 10.8
2004-08-16 07:08:53 51°16.162 2°54.176 39.8 5.8 33 10.8
2004-08-16 07:08:57 51°16.168 2°54.182 40.4 5.6 33 10.8
2004-08-16 07:09:00 51°16.172 2°54.185 40.7 5.4 33 10.8
2004-08-16 07:09:07 51°16.18 2°54.194 40.9 5.1 33 10.8
2004-08-16 07:09:11 51°16.185 2°54.199 41.3 4.9 35 10.8
2004-08-16 07:09:17 51°16.191 2°54.206 41.7 4.7 34 10.8
2004-08-16 07:09:21 51°16.195 2°54.211 42 4.6 34 10.8
2004-08-16 07:09:27 51°16.201 2°54.218 42.1 4.4 35 10.5
2004-08-16 07:09:33 51°16.207 2°54.224 42.6 4.2 35 10.9
2004-08-16 07:09:36 51°16.21 2°54.227 42.6 4.1 35 9.4
2004-08-16 07:09:40 51°16.213 2°54.231 42.5 4 34 10.9
2004-08-16 07:09:48 51°16.221 2°54.239 42.3 3.9 34 10.9
2004-08-16 07:09:52 51°16.224 2°54.242 42 3.7 33 10.9
2004-08-16 07:09:56 51°16.227 2°54.246 41.3 3.6 33 10.9
2004-08-16 07:10:00 51°16.231 2°54.249 40.6 3.5 31 10.8
2004-08-16 07:10:07 51°16.236 2°54.254 40 3.3 30 10.9
2004-08-16 07:10:11 51°16.239 2°54.257 38.9 3.1 30 10.9
2004-08-16 07:10:17 51°16.244 2°54.26 38.1 3 27 10.9
2004-08-16 07:10:22 51°16.247 2°54.263 36.9 2.8 25 10.9
2004-08-16 07:10:27 51°16.251 2°54.265 35.6 2.6 23 10.9
2004-08-16 07:10:33 51°16.254 2°54.267 34.5 2.3 21 10.9
2004-08-16 07:10:37 51°16.257 2°54.268 33.1 2.1 17 10.9
2004-08-16 07:10:40 51°16.258 2°54.269 32.1 1.8 15 10.9
2004-08-16 07:10:45 51°16.26 2°54.27 30.6 1.5 11 10.9
2004-08-16 07:10:52 51°16.263 2°54.27 29 1.3 6 10.9
2004-08-16 07:10:57 51°16.264 2°54.269 28 0.7 343 10.9
2004-08-16 07:11:00 51°16.265 2°54.269 26.2 0.5 327 10.9
2004-08-16 07:11:08 51°16.266 2°54.267 24.6 0.5 316 10.9
2004-08-16 07:11:13 51°16.266 2°54.266 21.7 0.6 310 10.9
2004-08-16 07:11:25 51°16.267 2°54.264 16.6 0.6 305 10.9
2004-08-16 07:11:30 51°16.268 2°54.262 14.5 0.6 302 10.9
2004-08-16 07:11:34 51°16.268 2°54.261 12.3 0.6 299 10.9
2004-08-16 07:11:40 51°16.269 2°54.26 10.4 0.7 296 10.9
2004-08-16 07:11:44 51°16.269 2°54.258 8.1 0.7 293 11
2004-08-16 07:11:49 51°16.269 2°54.257 6.8 0.7 292 10.9
2004-08-16 07:11:53 51°16.27 2°54.256 5 0.8 291 11
2004-08-16 07:12:00 51°16.27 2°54.254 3.5 0.8 290 10.9
2004-08-16 07:12:04 51°16.271 2°54.252 2 0.8 288 10.9
2004-08-16 07:12:08 51°16.271 2°54.251 0.7 0.8 288 10.9
2004-08-16 07:12:13 51°16.271 2°54.249 359.5 0.9 287 11
2004-08-16 07:12:18 51°16.272 2°54.247 358.4 0.8 288 11
2004-08-16 07:12:24 51°16.272 2°54.245 357.5 0.9 288 10.9
2004-08-16 07:12:28 51°16.272 2°54.243 356.8 0.9 288 11
2004-08-16 07:12:33 51°16.273 2°54.241 356.1 0.9 288 11
2004-08-16 07:12:40 51°16.274 2°54.239 355.7 0.9 289 11
2004-08-16 07:12:45 51°16.274 2°54.237 355.4 0.9 289 11
2004-08-16 07:12:48 51°16.274 2°54.235 355.2 0.9 290 11
2004-08-16 07:12:53 51°16.275 2°54.233 355 0.9 289 11
2004-08-16 07:13:05 51°16.275 2°54.229 355 0.9 291 11
2004-08-16 07:13:10 51°16.276 2°54.227 355.1 1 292 11
2004-08-16 07:13:14 51°16.276 2°54.225 355.1 1 293 11
2004-08-16 07:13:20 51°16.277 2°54.223 355.2 1 291 11
2004-08-16 07:13:24 51°16.277 2°54.221 355.4 1 295 11
2004-08-16 07:13:28 51°16.278 2°54.22 355.6 1 294 10.9
2004-08-16 07:13:33 51°16.278 2°54.218 355.9 1 293 10.5
2004-08-16 07:13:40 51°16.279 2°54.215 356.2 1 296 10.9
2004-08-16 07:13:42 51°16.279 2°54.214 356.5 1 296 11
2004-08-16 07:13:49 51°16.28 2°54.212 356.9 1 296 11
2004-08-16 07:13:53 51°16.28 2°54.21 357.2 1 296 11
2004-08-16 07:14:00 51°16.281 2°54.207 357.5 1 298 11
2004-08-16 07:14:04 51°16.281 2°54.206 357.9 0.9 298 11
2004-08-16 07:14:09 51°16.282 2°54.204 358.3 1 298 11
2004-08-16 07:14:13 51°16.282 2°54.203 358.6 0.9 300 11
2004-08-16 07:14:19 51°16.283 2°54.2 359 1 298 11
2004-08-16 07:14:24 51°16.284 2°54.199 359.3 0.9 299 11
2004-08-16 07:14:30 51°16.284 2°54.196 359.7 1 299 11
2004-08-16 07:14:34 51°16.285 2°54.195 0.1 1 301 11
2004-08-16 07:14:39 51°16.286 2°54.193 0.4 1 302 11
2004-08-16 07:14:44 51°16.287 2°54.191 0.8 1 302 11
2004-08-16 07:14:48 51°16.287 2°54.19 1 1 302 11
2004-08-16 07:14:59 51°16.289 2°54.186 1.4 1.1 310 11
2004-08-16 07:15:05 51°16.291 2°54.183 1.2 1.6 325 11
2004-08-16 07:15:08 51°16.293 2°54.182   2.1 328 11
2004-08-16 07:15:13 51°16.296 2°54.179 358.1 2.6 331 11
2004-08-16 07:15:16 51°16.298 2°54.177 354.9 3.1 330 11
2004-08-16 07:15:24 51°16.305 2°54.17 350.9 4 327 11
2004-08-16 07:15:28 51°16.309 2°54.165 346.6 4.4 324 11
2004-08-16 07:15:33 51°16.314 2°54.159 341 4.8 322 11
2004-08-16 07:15:40 51°16.322 2°54.148 336.8 5.1 319 11
2004-08-16 07:15:43 51°16.325 2°54.142 333.8 6.2 318 11
2004-08-16 07:15:48 51°16.332 2°54.132 332.4 7.2 318 11
2004-08-16 07:15:54 51°16.342 2°54.118 331.6 8.4 319 11
2004-08-16 07:16:00 51°16.354 2°54.102 331.2 8.8 319 11
2004-08-16 07:16:04 51°16.363 2°54.09 331 10 320 10.9
2004-08-16 07:16:09 51°16.374 2°54.075 331.3 10.5 320 10.9
2004-08-16 07:16:13 51°16.383 2°54.062 331.3 11 320 10.9
2004-08-16 07:16:20 51°16.4 2°54.039 331.5 11.3 319 10.9
2004-08-16 07:16:24 51°16.41 2°54.025 330.9 11.9 316 11
2004-08-16 07:16:29 51°16.421 2°54.005 328 12.2 314 11
2004-08-16 07:16:33 51°16.43 2°53.989 325.1 12.4 312 11
2004-08-16 07:16:40 51°16.446 2°53.958 322.5 12.7 310 11
2004-08-16 07:16:44 51°16.455 2°53.94 320.8 13 308 11
2004-08-16 07:16:48 51°16.464 2°53.922 319.4 13.1 308 11
2004-08-16 07:16:53 51°16.475 2°53.899 318.4 13.3 307 11
2004-08-16 07:17:00 51°16.491 2°53.865 317.6 13.3 307 11.1
2004-08-16 07:17:04 51°16.5 2°53.847 317.5 13.4 306 11
2004-08-16 07:17:08 51°16.509 2°53.827 317.3 13.5 306 11.1
2004-08-16 07:17:13 51°16.52 2°53.803 317.1 13.5 306 11.1
2004-08-16 07:17:20 51°16.535 2°53.769 316.7 13.5 306 11.1
2004-08-16 07:17:25 51°16.546 2°53.745 316.7 13.6 306 11.1
2004-08-16 07:17:28 51°16.553 2°53.731 316.9 13.6 307 11.2
2004-08-16 07:17:33 51°16.565 2°53.707 317.6 13.6 308 11.1
2004-08-16 07:17:39 51°16.579 2°53.679 318.3 13.6 308 11.1
2004-08-16 07:17:44 51°16.59 2°53.655 318.6 13.6 308 11.2
2004-08-16 07:17:49 51°16.602 2°53.632 318.6 13.6 308 11.2
2004-08-16 07:17:52 51°16.609 2°53.618 318.6 13.6 309 11.1
2004-08-16 07:18:00 51°16.628 2°53.581 318.6 13.5 309 11
2004-08-16 07:18:04 51°16.637 2°53.562 318.8 13.5 310 11
2004-08-16 07:18:09 51°16.65 2°53.54 319.4 13.4 311 10.9
2004-08-16 07:18:13 51°16.659 2°53.522 319.9 13.4 311 10.9
2004-08-16 07:18:19 51°16.674 2°53.495 320.1 13.4 311 10.9
2004-08-16 07:18:25 51°16.689 2°53.469 320.1 13.4 311 10.8
2004-08-16 07:18:30 51°16.701 2°53.446 320.1 13.4 311 10.6
2004-08-16 07:18:34 51°16.711 2°53.429 319.7 13.3 311 10.6
2004-08-16 07:18:40 51°16.725 2°53.402 319.5 13.3 311 10.5
2004-08-16 07:18:44 51°16.735 2°53.384 319.1 13.3 310 10.4
2004-08-16 07:18:48 51°16.744 2°53.366 318.8 13.3 310 10.4
2004-08-16 07:18:52 51°16.754 2°53.348 318.6 13.3 310 10.3
2004-08-16 07:19:00 51°16.773 2°53.312 318.1 13.3 310 10.2
2004-08-16 07:19:04 51°16.782 2°53.294 317.6 13.3 310 10.3
2004-08-16 07:19:09 51°16.794 2°53.271 318 13.2 311 10.2
2004-08-16 07:19:13 51°16.804 2°53.254 318.9 13.2 311 10.1
2004-08-16 07:19:20 51°16.821 2°53.224 319.8 13.2 312 9.9
2004-08-16 07:19:25 51°16.833 2°53.202 320.6 13.1 313 9.8
2004-08-16 07:19:29 51°16.843 2°53.186 321.2 13.1 314 9.3
2004-08-16 07:19:33 51°16.853 2°53.169 321.9 13 314 8.6
2004-08-16 07:19:40 51°16.87 2°53.141 322.3 12.8 314 8
2004-08-16 07:19:45 51°16.882 2°53.121 322.7 12.5 314 5.7
2004-08-16 07:19:49 51°16.892 2°53.105 322.5 12.3 313 7.4
2004-08-16 07:19:54 51°16.903 2°53.085 322.2 12.2 313 7.5
2004-08-16 07:19:59 51°16.914 2°53.065 321.7 12.1 311 7.4
2004-08-16 07:20:05 51°16.928 2°53.04 320.5 12.2 310 7.3
2004-08-16 07:20:08 51°16.934 2°53.028 319.4 12.3 308 7.3
2004-08-16 07:20:13 51°16.944 2°53.006 317.9 12.4 307 7.3
2004-08-16 07:20:19 51°16.957 2°52.979 316.2 12.5 306 7.4
2004-08-16 07:20:24 51°16.967 2°52.957 315 12.6 306 7.6
2004-08-16 07:20:41 51°17.004 2°52.882 317.6 12.9 311 8.3
2004-08-16 07:20:44 51°17.012 2°52.869 319.3 12.9 314 8.6
2004-08-16 07:20:53 51°17.035 2°52.833 323.5 13 317 8.5
2004-08-16 07:21:00 51°17.054 2°52.806 325.8 13 318 8.7
2004-08-16 07:21:03 51°17.062 2°52.795 327.3 13 319 9
2004-08-16 07:21:08 51°17.076 2°52.776 328.1 13.1 319 9.1
2004-08-16 07:21:11 51°17.085 2°52.765 328.4 13.1 318 9.3
2004-08-16 07:21:16 51°17.098 2°52.746 327.6 13.1 318 9.1
2004-08-16 07:21:26 51°17.124 2°52.705 325.7 13.1 315 8.7
2004-08-16 07:21:32 51°17.139 2°52.679 323.7 13.1 313 8.7
2004-08-16 07:21:35 51°17.146 2°52.666 321.9 13 311 8.6
2004-08-16 07:21:40 51°17.158 2°52.645 320.7 13 311 8.6
2004-08-16 07:21:46 51°17.172 2°52.618 319.6 12.9 310 8.6
2004-08-16 07:21:52 51°17.185 2°52.592 319.1 13 310 8.7
2004-08-16 07:21:57 51°17.197 2°52.569 318.6 13.1 310 8.8
2004-08-16 07:22:02 51°17.209 2°52.548 318.6 13.1 311 8.8
2004-08-16 07:22:06 51°17.219 2°52.53 319.6 13.1 312 8.8
2004-08-16 07:22:12 51°17.234 2°52.505 321.1 13.1 313 9
2004-08-16 07:22:16 51°17.244 2°52.488 322.2 13.1 315 9.1
2004-08-16 07:22:20 51°17.254 2°52.472 323.5 13.1 315 9.1
2004-08-16 07:22:30 51°17.28 2°52.432 324.3 13.1 316 9.3
2004-08-16 07:22:36 51°17.296 2°52.407 324.7 13.2 315 9.3
2004-08-16 07:22:40 51°17.306 2°52.39 324.3 13.2 315 9.6
2004-08-16 07:22:46 51°17.321 2°52.365 323.8 13.2 314 9.4
2004-08-16 07:22:49 51°17.329 2°52.352 323 13.2 313 9.5
2004-08-16 07:22:56 51°17.346 2°52.322 322.2 13.2 312 9.5
2004-08-16 07:23:00 51°17.356 2°52.304 321.2 13.2 311 9.5
2004-08-16 07:23:06 51°17.37 2°52.278 320.6 13.2 312 9.6
2004-08-16 07:23:10 51°17.38 2°52.261 320.3 13.2 312 9.4
2004-08-16 07:23:15 51°17.393 2°52.24 321.8 13.2 314 9.5
2004-08-16 07:23:20 51°17.406 2°52.22 323.7 13.1 317 9.5
2004-08-16 07:23:26 51°17.423 2°52.197 325.8 13.1 318 9.5
2004-08-16 07:23:28 51°17.428 2°52.19 327.3 13 319 9.6
2004-08-16 07:23:36 51°17.45 2°52.161 328.6 13 321 9.5
2004-08-16 07:23:40 51°17.461 2°52.147 329.5 13 322 9.6
2004-08-16 07:23:45 51°17.476 2°52.129 330.4 13 322 9.7
2004-08-16 07:23:50 51°17.49 2°52.111 330.7 13 322 9.5
2004-08-16 07:23:56 51°17.507 2°52.089 330.8 13 322 9.7
2004-08-16 07:24:00 51°17.518 2°52.075 330.7 13 321 9.5
2004-08-16 07:24:05 51°17.532 2°52.057 330.3 13 321 9.4
2004-08-16 07:24:09 51°17.543 2°52.042 329.7 13 320 9.7
2004-08-16 07:24:16 51°17.562 2°52.016 328.9 13 319 9.7
2004-08-16 07:24:20 51°17.573 2°52.001 328.6 13 319 9.6
2004-08-16 07:24:24 51°17.584 2°51.986 328.4 13 319 9.6
2004-08-16 07:24:32 51°17.606 2°51.956 328.3 13 319 9.4
2004-08-16 07:24:37 51°17.62 2°51.937 328.4 13 320 9.5
2004-08-16 07:24:44 51°17.639 2°51.911 328.8 13 320 9.4
2004-08-16 07:24:49 51°17.653 2°51.893 329.2 12.9 321 9.3
2004-08-16 07:24:53 51°17.664 2°51.878 329.6 12.9 320 9.4
2004-08-16 07:24:56 51°17.672 2°51.867 329.6 12.9 321 9.5
2004-08-16 07:25:04 51°17.694 2°51.838 329.6 12.9 320 9.2
2004-08-16 07:25:09 51°17.708 2°51.82 329.6 12.9 320 9.4
2004-08-16 07:25:13 51°17.718 2°51.805 329.4 12.9 319 9.5
2004-08-16 07:25:18 51°17.732 2°51.786 328.7 12.9 319 9.4
2004-08-16 07:25:24 51°17.748 2°51.764 328.2 12.9 318 9.4
2004-08-16 07:25:29 51°17.762 2°51.744 328 12.9 318 9.3
2004-08-16 07:25:32 51°17.77 2°51.733 327.8 12.9 318 9.2
2004-08-16 07:25:36 51°17.78 2°51.718 327.4 13 319 9.3
2004-08-16 07:25:46 51°17.808 2°51.68 327.8 13 319 9.3
2004-08-16 07:25:52 51°17.824 2°51.658 328.4 13 320 9.3
2004-08-16 07:25:55 51°17.833 2°51.647 329.2 13 322 9.1
2004-08-16 07:26:00 51°17.847 2°51.63 330.4 13 322 9.3
2004-08-16 07:26:04 51°17.858 2°51.615 331.1 13 323 9.4
2004-08-16 07:26:12 51°17.882 2°51.588 331.9 13 323 9.4
2004-08-16 07:26:15 51°17.89 2°51.578 332.4 13 323 9.6
2004-08-16 07:26:20 51°17.905 2°51.561 332.5 13 323 9.4
2004-08-16 07:26:24 51°17.916 2°51.547 332.4 13 323 9.7
2004-08-16 07:26:32 51°17.939 2°51.518 331.9 13 322 9.7
2004-08-16 07:26:35 51°17.948 2°51.508 331.1 13.1 321 9.8
2004-08-16 07:26:40 51°17.962 2°51.489 330.7 13.1 321 10
2004-08-16 07:26:44 51°17.973 2°51.475 329.9 13.1 320 10.1
2004-08-16 07:26:52 51°17.996 2°51.445 329.5 13.1 320 10.1
2004-08-16 07:26:55 51°18.004 2°51.434 329.1 13.1 320 10
2004-08-16 07:27:00 51°18.018 2°51.415 329.1 13.2 320 10.4
2004-08-16 07:27:04 51°18.029 2°51.4 329 13.2 320 10.5
2004-08-16 07:27:12 51°18.052 2°51.37 329 13.2 320 10.5
2004-08-16 07:27:15 51°18.06 2°51.359 329.1 13.2 320 10.4
2004-08-16 07:27:20 51°18.074 2°51.34 329.3 13.2 321 10.8
2004-08-16 07:27:24 51°18.086 2°51.325 329.5 13.2 321 10.7
2004-08-16 07:27:32 51°18.109 2°51.297 330.2 13.2 322 11
2004-08-16 07:27:35 51°18.118 2°51.287 331.7 13.2 324 11.1
2004-08-16 07:27:40 51°18.132 2°51.27 332.8 13.1 325 11.3
2004-08-16 07:27:44 51°18.144 2°51.256 333.8 13.1 325 11.2
2004-08-16 07:27:52 51°18.168 2°51.23 334.5 13.1 326 11.5
2004-08-16 07:27:55 51°18.177 2°51.221 335.3 13.1 326 11.5
2004-08-16 07:28:00 51°18.193 2°51.205 335.6 13.1 327 11.6
2004-08-16 07:28:04 51°18.205 2°51.192 335.8 13.1 327 11.7
2004-08-16 07:28:12 51°18.229 2°51.167 336.1 13.1 327 11.7
2004-08-16 07:28:15 51°18.238 2°51.157 336.3 13 327 12
2004-08-16 07:28:20 51°18.253 2°51.141 336.2 13 326 12
2004-08-16 07:28:24 51°18.265 2°51.128 336 13.1 326 12.1
2004-08-16 07:28:32 51°18.289 2°51.102 335.4 13.1 325 12.2
2004-08-16 07:28:35 51°18.298 2°51.092 334.6 13.1 325 12.3
2004-08-16 07:28:40 51°18.313 2°51.075 334.3 13.1 325 12.3
2004-08-16 07:28:45 51°18.328 2°51.059 334.4 13 325 12.6
2004-08-16 07:28:50 51°18.342 2°51.044 334.8 12 327 12.5
2004-08-16 07:28:56 51°18.357 2°51.028 336.6 11 329 12.6
2004-08-16 07:29:00 51°18.368 2°51.019 338.7 10.3 332 12.6
2004-08-16 07:29:06 51°18.382 2°51.008 343 9.4 337 12.6
2004-08-16 07:29:11 51°18.394 2°51.002 347.4 9.1 338 12.9
2004-08-16 07:29:16 51°18.405 2°50.997 352 8.1 347 12.8
2004-08-16 07:29:22 51°18.417 2°50.994 356.4 7.6 351 13
2004-08-16 07:29:26 51°18.425 2°50.994 2.8 7.2 356 12.9
2004-08-16 07:29:32 51°18.435 2°50.995 7.6 6.7 2 13
2004-08-16 07:29:36 51°18.442 2°50.997 15.5 5.8 13 13
2004-08-16 07:29:40 51°18.447 2°51.001 21.4 5.5 20 13.1
2004-08-16 07:29:44 51°18.453 2°51.005 28.2 5.3 24 13.1
2004-08-16 07:29:52 51°18.462 2°51.012 32.6 4.8 28 13.1
2004-08-16 07:29:56 51°18.467 2°51.017 36.4 4.5 32 13.2
2004-08-16 07:30:02 51°18.473 2°51.023 38.4 4.3 33 13.2
2004-08-16 07:30:07 51°18.477 2°51.028 40.1 4.1 35 13.2
2004-08-16 07:30:10 51°18.479 2°51.031 41.6 3.7 38 13.2
2004-08-16 07:30:16 51°18.484 2°51.037 43.2 3.3 41 13.2
2004-08-16 07:30:22 51°18.487 2°51.042 45 2.9 43 13.2
2004-08-16 07:30:25 51°18.489 2°51.045 48 2.3 47 13.1
2004-08-16 07:30:32 51°18.49 2°51.048 50.3 1.4 53 13.1
2004-08-16 07:30:36 51°18.49 2°51.049 55.2 0.4 72 13.2
2004-08-16 07:30:40 51°18.49 2°51.049 59.3 0.3 183 13.2
2004-08-16 07:30:47 51°18.489 2°51.048 63.7 0.4 207 13.3
2004-08-16 07:30:49 51°18.489 2°51.048 66 0.3 195 13.2
2004-08-16 07:31:00 51°18.488 2°51.048 69.4 0.4 182 13.2
2004-08-16 07:31:08 51°18.487 2°51.048 70.5 0.3 188 13.2
2004-08-16 07:31:12 51°18.487 2°51.048 72.1 0.4 177 13.1
2004-08-16 07:31:16 51°18.486 2°51.048 72.9 0.5 177 13.1
2004-08-16 07:31:21 51°18.486 2°51.048 73.8 0.5 175 13.1
2004-08-16 07:31:28 51°18.485 2°51.048 74.2 0.5 175 13.1
2004-08-16 07:31:32 51°18.484 2°51.048 74.7 0.6 174 13.1
2004-08-16 07:31:36 51°18.483 2°51.048 74.8 0.5 175 13.1
2004-08-16 07:31:41 51°18.483 2°51.048 75.1 0.6 171 13.1
2004-08-16 07:31:48 51°18.482 2°51.049 75.4 0.5 171 13.1
2004-08-16 07:31:52 51°18.481 2°51.049 75.6 0.6 170 13.2
2004-08-16 07:31:56 51°18.48 2°51.049 75.8 0.6 170 13.2
2004-08-16 07:32:01 51°18.48 2°51.049 75.8 0.6 169 13.3
2004-08-16 07:32:08 51°18.478 2°51.05 75.8 0.7 169 13.2
2004-08-16 07:32:11 51°18.478 2°51.05 75.8 0.6 168 13.1
2004-08-16 07:32:17 51°18.477 2°51.05 75.9 0.7 168 13.1
2004-08-16 07:32:21 51°18.476 2°51.051 76 0.6 166 13
2004-08-16 07:32:26 51°18.475 2°51.051 75.9 0.7 167 13
2004-08-16 07:32:33 51°18.474 2°51.052 75.8 0.8 165 13
2004-08-16 07:32:36 51°18.473 2°51.052 75.7 0.6 166 13
2004-08-16 07:32:40 51°18.472 2°51.052 75.6 0.7 166 13.1
2004-08-16 07:32:48 51°18.471 2°51.053 75.6 0.7 165 13.2
2004-08-16 07:32:50 51°18.47 2°51.053 75.4 0.6 165 13.3
2004-08-16 07:32:57 51°18.469 2°51.054 75.4 0.7 164 13.2
2004-08-16 07:33:00 51°18.468 2°51.054 75.1 0.7 164 13.2
2004-08-16 07:33:08 51°18.467 2°51.055 74.8 0.8 164 13.2
2004-08-16 07:33:11 51°18.466 2°51.055 74.7 0.7 164 13.1
2004-08-16 07:33:16 51°18.465 2°51.055 74.3 0.8 164 13.1
2004-08-16 07:33:26 51°18.463 2°51.056 73.6 0.7 163 13.1
2004-08-16 07:33:32 51°18.462 2°51.057 73.3 0.7 163 13
2004-08-16 07:33:37 51°18.461 2°51.057 72.6 0.7 163 13.1
2004-08-16 07:33:41 51°18.46 2°51.057 72.5 0.7 163 13.2
2004-08-16 07:33:46 51°18.459 2°51.058 71.8 0.7 165 13.2
2004-08-16 07:33:51 51°18.459 2°51.058 71.3 0.7 164 13.1
2004-08-16 07:33:56 51°18.458 2°51.058 70.8 0.7 164 13.1
2004-08-16 07:34:02 51°18.456 2°51.059 70.3 0.6 165 13.1
2004-08-16 07:34:06 51°18.456 2°51.059 69.7 0.7 163 13.1
2004-08-16 07:34:11 51°18.455 2°51.059 68.9 0.6 165 13.1
2004-08-16 07:34:16 51°18.454 2°51.06 68.4 0.7 164 13.3
2004-08-16 07:34:22 51°18.453 2°51.06 67.8 0.6 166 13.3
2004-08-16 07:34:24 51°18.453 2°51.06 67.2 0.7 164 13.2
2004-08-16 07:34:31 51°18.452 2°51.06 66.6 0.6 165 13.1
2004-08-16 07:34:37 51°18.45 2°51.061 65.8 0.6 166 13.3
2004-08-16 07:34:42 51°18.45 2°51.061 65.2 0.5 169 13.3
2004-08-16 07:34:45 51°18.449 2°51.061 64.5 0.7 165 13.2
2004-08-16 07:34:51 51°18.448 2°51.062 63.8 0.5 171 13.1
2004-08-16 07:34:56 51°18.448 2°51.062 63.1 0.6 166 13.1
2004-08-16 07:35:02 51°18.447 2°51.062 62.6 0.5 169 13.1
2004-08-16 07:35:06 51°18.446 2°51.062 61.7 0.5 170 13.1
2004-08-16 07:35:12 51°18.445 2°51.062 61.1 0.5 174 13
2004-08-16 07:35:17 51°18.445 2°51.063 60.8 0.5 173 13.1
2004-08-16 07:35:21 51°18.444 2°51.063 60.1 0.5 173 13
2004-08-16 07:35:24 51°18.444 2°51.063 59.5 0.5 171 13
2004-08-16 07:35:31 51°18.443 2°51.063 58.8 0.5 170 13
2004-08-16 07:35:37 51°18.442 2°51.063 58.1 0.5 175 13
2004-08-16 07:35:41 51°18.441 2°51.063 57.5 0.5 172 13.1
2004-08-16 07:35:45 51°18.441 2°51.063 56.7 0.5 177 13.1
2004-08-16 07:35:52 51°18.44 2°51.063 56.2 0.5 176 13.1
2004-08-16 07:35:57 51°18.44 2°51.063 55.5 0.5 174 13.1
2004-08-16 07:36:01 51°18.439 2°51.063 54.7 0.4 181 13.2
2004-08-16 07:36:05 51°18.438 2°51.063 54 0.5 175 13.1
2004-08-16 07:36:12 51°18.438 2°51.064 53.5 0.4 170 13.1
2004-08-16 07:36:16 51°18.438 2°51.064 52.7 0.4 96 13
2004-08-16 07:36:20 51°18.438 2°51.066 51.8 0.7 71 13
2004-08-16 07:36:26 51°18.439 2°51.068 50.9 1.2 55 13
2004-08-16 07:36:31 51°18.441 2°51.071 50 1.4 55 13.1
2004-08-16 07:36:37 51°18.443 2°51.075 48.8 2 48 13.2
2004-08-16 07:36:40 51°18.444 2°51.077 47.5 2.3 46 13.1
2004-08-16 07:36:45 51°18.447 2°51.081 46.3 2.6 46 13.1
2004-08-16 07:36:51 51°18.451 2°51.087 45 3.7 41 13.3
2004-08-16 07:36:57 51°18.457 2°51.095 43.7 5.1 38 13.1
2004-08-16 07:37:01 51°18.463 2°51.101 42.3 5.8 37 13
2004-08-16 07:37:06 51°18.47 2°51.11 41 6.6 35 13
2004-08-16 07:37:11 51°18.479 2°51.119 39.5 7.4 33 13
2004-08-16 07:37:16 51°18.489 2°51.128 38.2 8.1 31 13.2
2004-08-16 07:37:28 51°18.514 2°51.15 34.4 8.8 29 13.1
2004-08-16 07:37:31 51°18.521 2°51.156 33.4 9.3 31 13.1
2004-08-16 07:37:37 51°18.534 2°51.17 35.8 9.5 34 13.2
2004-08-16 07:37:40 51°18.54 2°51.177 39.1 9.7 36 13.2
2004-08-16 07:37:48 51°18.557 2°51.2 42 9.8 39 13.2
2004-08-16 07:37:51 51°18.563 2°51.209 45 10.1 44 13.2
2004-08-16 07:37:57 51°18.575 2°51.228 47.1 10.4 45 13.2
2004-08-16 07:38:02 51°18.586 2°51.246 48.9 10.9 47 13.4
2004-08-16 07:38:08 51°18.598 2°51.267 50.2 11.1 48 13.2
2004-08-16 07:38:12 51°18.606 2°51.283 51.4 11.4 49 13.3
2004-08-16 07:38:16 51°18.615 2°51.298 52.2 11.5 49 13.2
2004-08-16 07:38:20 51°18.623 2°51.314 52.7 11.6 50 13.2
2004-08-16 07:38:27 51°18.637 2°51.342 53.1 11.8 52 13.3
2004-08-16 07:38:31 51°18.645 2°51.36 55.4 11.8 56 13.3
2004-08-16 07:38:37 51°18.655 2°51.386 58.2 11.9 58 13.2
2004-08-16 07:38:40 51°18.66 2°51.4 60.3 11.9 59 13.2
2004-08-16 07:38:45 51°18.669 2°51.423 61.6 11.9 60 13.3
2004-08-16 07:38:53 51°18.681 2°51.46 62.6 12 62 13.2
2004-08-16 07:38:56 51°18.685 2°51.475 64.2 12 66 13.2
2004-08-16 07:39:00 51°18.69 2°51.494 67.1 12 68 13.2
2004-08-16 07:39:07 51°18.699 2°51.529 69 12 68 13.1
2004-08-16 07:39:13 51°18.706 2°51.559 70.5 12.1 70 13.1
2004-08-16 07:39:16 51°18.709 2°51.575 71.3 12.1 72 13.1
2004-08-16 07:39:21 51°18.714 2°51.6 72 12.1 71 13.1
2004-08-16 07:39:28 51°18.722 2°51.635 72 12.1 71 13.1
2004-08-16 07:39:31 51°18.725 2°51.65 72 12.1 70 13
2004-08-16 07:39:36 51°18.731 2°51.676 71.8 12.1 71 13
2004-08-16 07:39:40 51°18.736 2°51.696 71.2 12.1 70 12.9
2004-08-16 07:39:47 51°18.744 2°51.731 70.6 12.2 69 12.9
2004-08-16 07:39:53 51°18.751 2°51.762 70.6 12.2 69 12.9
2004-08-16 07:39:58 51°18.757 2°51.787 70.6 12.2 70 12.9
2004-08-16 07:40:02 51°18.762 2°51.807 70.7 12.2 69 12.8
2004-08-16 07:40:08 51°18.768 2°51.837 71.1 12.2 71 12.8
2004-08-16 07:40:11 51°18.772 2°51.853 71.4 12.2 70 12.8
2004-08-16 07:40:16 51°18.778 2°51.878 71.1 12.2 70 12.8
2004-08-16 07:40:20 51°18.783 2°51.898 70.9 12.2 69 12.7
2004-08-16 07:40:28 51°18.793 2°51.939 70.2 12.2 68 12.8
2004-08-16 07:40:31 51°18.796 2°51.954 69.9 12.2 69 12.7
2004-08-16 07:40:36 51°18.803 2°51.979 69.8 12.2 69 12.7
2004-08-16 07:40:42 51°18.81 2°52.009 70.2 12.2 70 12.7
2004-08-16 07:40:48 51°18.817 2°52.04 70.6 12.2 70 12.5
2004-08-16 07:40:53 51°18.822 2°52.065 71.1 12.2 70 12.6
2004-08-16 07:40:57 51°18.827 2°52.085 71.2 12.2 70 12.6
2004-08-16 07:41:02 51°18.833 2°52.111 71.4 12.2 70 12.5
2004-08-16 07:41:07 51°18.839 2°52.136 71.1 12.2 70 12.4
2004-08-16 07:41:13 51°18.846 2°52.167 70.9 12.2 70 12.4
2004-08-16 07:41:17 51°18.851 2°52.187 71.1 12.2 70 12.4
2004-08-16 07:41:21 51°18.855 2°52.207 71 12.2 70 12.3
2004-08-16 07:41:27 51°18.862 2°52.238 70.9 12.2 69 12.3
2004-08-16 07:41:33 51°18.87 2°52.268 70.5 12.2 69 12.3
2004-08-16 07:41:36 51°18.873 2°52.283 70.2 12.2 69 12.3
2004-08-16 07:41:40 51°18.879 2°52.303 70 12.2 69 12.2
2004-08-16 07:41:48 51°18.888 2°52.343 70 12.2 69 12.2
2004-08-16 07:41:52 51°18.893 2°52.363 70.1 12.2 69 12
2004-08-16 07:41:56 51°18.898 2°52.383 70.1 12.2 70 12.1
2004-08-16 07:42:00 51°18.903 2°52.404 70.4 12.2 69 12
2004-08-16 07:42:08 51°18.912 2°52.444 70.6 12.2 70 11.9
2004-08-16 07:42:12 51°18.917 2°52.464 70.7 12.2 70 12
2004-08-16 07:42:16 51°18.921 2°52.484 70.7 12.2 69 11.8
2004-08-16 07:42:20 51°18.926 2°52.505 70.5 12.2 70 11.8
2004-08-16 07:42:28 51°18.936 2°52.545 70.5 12.2 69 11.9
2004-08-16 07:42:33 51°18.942 2°52.57 70.4 12.2 69 11.9
2004-08-16 07:42:36 51°18.945 2°52.585 70.2 12.2 68 11.9
2004-08-16 07:42:41 51°18.951 2°52.61 69.9 12.2 69 11.8
2004-08-16 07:42:47 51°18.959 2°52.64 69.6 12.1 69 11.8
2004-08-16 07:42:51 51°18.963 2°52.66 69.7 12.1 68 11.9
2004-08-16 07:42:56 51°18.97 2°52.685 69.7 12.1 69 11.8
2004-08-16 07:43:00 51°18.974 2°52.705 70.3 12.2 69 11.8
2004-08-16 07:43:08 51°18.984 2°52.746 70.2 12.1 69 11.7
2004-08-16 07:43:12 51°18.989 2°52.766 70.4 12.1 68 11.8
2004-08-16 07:43:16 51°18.994 2°52.785 70.4 12.1 69 11.7
2004-08-16 07:43:20 51°18.998 2°52.806 70.2 12.1 69 11.7
2004-08-16 07:43:28 51°19.008 2°52.845 70.3 12.1 69 11.6
2004-08-16 07:43:32 51°19.013 2°52.866 70.4 12.1 69 11.6
2004-08-16 07:43:36 51°19.017 2°52.886 70.4 12.1 70 11.6
2004-08-16 07:43:40 51°19.022 2°52.906 70.5 12.1 69 11.6
2004-08-16 07:43:47 51°19.031 2°52.941 70.6 12.1 69 11.6
2004-08-16 07:43:53 51°19.038 2°52.971 70.4 12.1 69 11.5
2004-08-16 07:43:56 51°19.042 2°52.986 70.2 12.1 69 11.6
2004-08-16 07:44:00 51°19.047 2°53.006 70 12.2 68 11.5
2004-08-16 07:44:08 51°19.057 2°53.046 69.7 12.2 68 11.5
2004-08-16 07:44:12 51°19.062 2°53.066 69.6 12.2 67 11.6
2004-08-16 07:44:16 51°19.067 2°53.085 69.3 12.2 68 11.4
2004-08-16 07:44:20 51°19.072 2°53.106 69 12.2 67 11.5
2004-08-16 07:44:27 51°19.081 2°53.14 68.4 12.2 68 11.5
2004-08-16 07:44:31 51°19.087 2°53.16 68.6 12.2 66 11.4
2004-08-16 07:44:36 51°19.093 2°53.185 68.8 12.2 68 11.5
2004-08-16 07:44:45 51°19.104 2°53.23 69.3 12.2 68 11.4
2004-08-16 07:44:48 51°19.108 2°53.245 70 12.2 69 11.5
2004-08-16 07:44:56 51°19.118 2°53.285 70.2 12.2 69 11.5
2004-08-16 07:45:00 51°19.123 2°53.305 69.9 12.2 68 11.4
2004-08-16 07:45:04 51°19.128 2°53.325 69.4 12.1 67 11.5
2004-08-16 07:45:11 51°19.137 2°53.359 69 12.1 68 11.5
2004-08-16 07:45:16 51°19.143 2°53.385 69.2 12.2 68 11.4
2004-08-16 07:45:21 51°19.15 2°53.41 69.6 12.2 68 11.4
2004-08-16 07:45:26 51°19.156 2°53.435 69.8 12.2 69 11.5
2004-08-16 07:45:31 51°19.162 2°53.46 70.2 12.2 69 11.5
2004-08-16 07:45:36 51°19.168 2°53.485 70.4 12.2 69 11.4
2004-08-16 07:45:41 51°19.174 2°53.51 70.4 12.2 69 11.4
2004-08-16 07:45:47 51°19.181 2°53.541 70.6 12.2 69 11.5
2004-08-16 07:45:52 51°19.188 2°53.566 70.6 12.2 69 11.4
2004-08-16 07:45:56 51°19.193 2°53.586 70.6 12.2 69 11.4
2004-08-16 07:46:02 51°19.2 2°53.616 70.3 12.2 69 11.5
2004-08-16 07:46:04 51°19.203 2°53.627 70.2 12.2 68 11.5
2004-08-16 07:46:10 51°19.21 2°53.657 70 12.2 68 11.4
2004-08-16 07:46:20 51°19.223 2°53.707 69.3 12.2 68 11.5
2004-08-16 07:46:28 51°19.234 2°53.747 69.1 12.2 67 11.5
2004-08-16 07:46:33 51°19.24 2°53.772 68.9 12.2 67 11.5
2004-08-16 07:46:37 51°19.245 2°53.792 69 12.2 67 11.4
2004-08-16 07:46:40 51°19.249 2°53.807 68.8 12.2 67 11.5
2004-08-16 07:46:47 51°19.258 2°53.841 68.7 12.2 68 11.5
2004-08-16 07:46:53 51°19.266 2°53.871 68.9 12.2 69 11.5
2004-08-16 07:46:56 51°19.269 2°53.887 69.8 12.2 71 11.5
2004-08-16 07:47:01 51°19.275 2°53.912 71.3 12.2 71 11.5
2004-08-16 07:47:07 51°19.281 2°53.943 71.8 12.2 71 11.5
2004-08-16 07:47:13 51°19.288 2°53.973 72.1 12.2 71 11.5
2004-08-16 07:47:15 51°19.29 2°53.983 72.2 12.1 71 11.5
2004-08-16 07:47:20 51°19.295 2°54.009 72.3 12.1 72 11.5
2004-08-16 07:47:27 51°19.303 2°54.044 72.5 12.1 72 11.5
2004-08-16 07:47:29 51°19.305 2°54.055 73.1 12.1 72 11.5
2004-08-16 07:47:43 51°19.32 2°54.126 73.3 12.1 71 11.5
2004-08-16 07:47:47 51°19.324 2°54.146 73.2 12.1 71 11.4
2004-08-16 07:47:52 51°19.329 2°54.171 72.9 12.1 71 11.5
2004-08-16 07:47:56 51°19.334 2°54.192 72.5 12 70 11.5
2004-08-16 07:48:00 51°19.338 2°54.212 72.1 12 70 11.5
2004-08-16 07:48:07 51°19.346 2°54.246 71.8 12 70 11.5
2004-08-16 07:48:13 51°19.353 2°54.276 71.7 12 70 11.4
2004-08-16 07:48:16 51°19.356 2°54.291 71.8 12 71 11.5
2004-08-16 07:48:21 51°19.361 2°54.316 72.3 12 70 11.4
2004-08-16 07:48:27 51°19.368 2°54.347 72.7 12 72 11.4
2004-08-16 07:48:33 51°19.374 2°54.377 73 12 71 11.5
2004-08-16 07:48:37 51°19.378 2°54.397 73.2 12 72 11.6
2004-08-16 07:48:42 51°19.384 2°54.422 73.3 12 71 11.5
2004-08-16 07:48:47 51°19.389 2°54.447 73.2 12 71 11.5
2004-08-16 07:48:53 51°19.396 2°54.477 73.1 12 71 11.5
2004-08-16 07:48:57 51°19.4 2°54.497 73.2 12 70 11.6
2004-08-16 07:49:02 51°19.406 2°54.522 73 11.9 71 11.5
2004-08-16 07:49:07 51°19.411 2°54.547 72.7 11.9 70 11.5
2004-08-16 07:49:13 51°19.418 2°54.577 72.5 11.9 70 11.5
2004-08-16 07:49:17 51°19.423 2°54.596 72.1 11.9 69 11.6
2004-08-16 07:49:21 51°19.427 2°54.616 71.8 12 69 11.5
2004-08-16 07:49:28 51°19.436 2°54.651 71.7 12 68 11.6
2004-08-16 07:49:36 51°19.446 2°54.69 71.3 11.9 68 11.5
2004-08-16 07:49:44 51°19.456 2°54.729 71 11.9 69 11.5
2004-08-16 07:49:49 51°19.462 2°54.754 71 11.9 69 11.5
2004-08-16 07:49:53 51°19.466 2°54.774 71 11.9 69 11.5
2004-08-16 07:49:56 51°19.47 2°54.788 71.5 11.9 69 11.5
2004-08-16 07:50:04 51°19.479 2°54.828 71.6 11.9 70 11.5
2004-08-16 07:50:08 51°19.483 2°54.848 72.5 11.9 71 11.5
2004-08-16 07:50:13 51°19.489 2°54.873 72.9 11.9 71 11.6
2004-08-16 07:50:17 51°19.493 2°54.893 73.3 11.9 71 11.5
2004-08-16 07:50:22 51°19.498 2°54.918 73.4 11.9 72 11.5
2004-08-16 07:50:27 51°19.504 2°54.943 73.5 11.9 70 11.6
2004-08-16 07:50:31 51°19.508 2°54.963 73.1 11.9 71 11.5
2004-08-16 07:50:37 51°19.515 2°54.993 72.5 11.9 70 11.5
2004-08-16 07:50:41 51°19.519 2°55.012 72 11.9 69 11.5
2004-08-16 07:50:48 51°19.528 2°55.047 71.8 11.9 69 11.5
2004-08-16 07:50:53 51°19.534 2°55.071 71.1 11.8 68 11.5
2004-08-16 07:50:57 51°19.538 2°55.09 70.8 11.8 68 11.5
2004-08-16 07:51:04 51°19.547 2°55.124 70.9 11.8 69 11.4
2004-08-16 07:51:08 51°19.551 2°55.144 71.1 11.9 69 11.4
2004-08-16 07:51:11 51°19.555 2°55.159 71.1 11.8 70 11.5
2004-08-16 07:51:16 51°19.56 2°55.183 72 11.8 70 11.4
2004-08-16 07:51:24 51°19.569 2°55.223 72.7 11.8 71 11.5
2004-08-16 07:51:28 51°19.573 2°55.243 73.2 11.8 71 11.4
2004-08-16 07:51:31 51°19.576 2°55.258 73.2 11.8 71 11.3
2004-08-16 07:51:36 51°19.581 2°55.283 73.2 11.8 71 11.5
2004-08-16 07:51:44 51°19.59 2°55.322 73.2 11.8 72 11.5
2004-08-16 07:51:48 51°19.594 2°55.342 73 11.8 70 11.4
2004-08-16 07:51:51 51°19.598 2°55.357 72.5 11.9 71 11.4
2004-08-16 07:51:57 51°19.605 2°55.386 72.5 11.9 70 11.5
2004-08-16 07:52:04 51°19.613 2°55.421 72.2 11.9 70 11.4
2004-08-16 07:52:08 51°19.617 2°55.44 71.8 11.8 69 11.4
2004-08-16 07:52:11 51°19.62 2°55.455 71.8 11.8 70 11.4
2004-08-16 07:52:17 51°19.627 2°55.485 71.9 11.9 70 11.5
2004-08-16 07:52:24 51°19.635 2°55.519 72.1 11.9 71 11.4
2004-08-16 07:52:28 51°19.639 2°55.539 72.8 11.8 72 11.4
2004-08-16 07:52:31 51°19.642 2°55.554 73.7 11.9 73 11.4
2004-08-16 07:52:36 51°19.647 2°55.579 74.5 11.9 73 11.4
2004-08-16 07:52:44 51°19.655 2°55.62 74.8 11.9 73 11.4
2004-08-16 07:52:48 51°19.658 2°55.64 75.1 11.8 73 11.4
2004-08-16 07:52:51 51°19.661 2°55.655 75.2 11.9 73 11.3
2004-08-16 07:52:56 51°19.666 2°55.68 75 11.9 72 11.3
2004-08-16 07:53:03 51°19.673 2°55.715 74.4 11.9 72 11.4
2004-08-16 07:53:08 51°19.679 2°55.74 74.1 11.8 72 11.4
2004-08-16 07:53:13 51°19.684 2°55.765 74 11.9 72 11.3
2004-08-16 07:53:18 51°19.689 2°55.79 73.9 11.9 72 11.4
2004-08-16 07:53:24 51°19.695 2°55.82 74 11.9 72 11.3
2004-08-16 07:53:29 51°19.7 2°55.845 74.5 11.9 73 11.3
2004-08-16 07:53:42 51°19.713 2°55.91 74.2 11.9 72 11.2
2004-08-16 07:53:48 51°19.72 2°55.94 74 11.9 71 11.2
2004-08-16 07:53:53 51°19.725 2°55.964 73.6 11.9 71 11.3
2004-08-16 07:53:58 51°19.73 2°55.989 73.3 11.9 71 11.2
2004-08-16 07:54:00 51°19.733 2°55.999 73.4 11.9 71 11.2
2004-08-16 07:54:08 51°19.741 2°56.04 73.9 11.9 72 11.2
2004-08-16 07:54:13 51°19.746 2°56.065 74.6 11.9 73 11.1
2004-08-16 07:54:16 51°19.749 2°56.08 74.8 11.9 72 11.2
2004-08-16 07:54:20 51°19.752 2°56.1 74.6 11.9 73 11.2
2004-08-16 07:54:27 51°19.759 2°56.135 74.7 11.9 73 11.1
2004-08-16 07:54:33 51°19.765 2°56.166 74.8 11.9 73 11.1
2004-08-16 07:54:36 51°19.768 2°56.181 74.9 11.9 73 11.1
2004-08-16 07:54:41 51°19.773 2°56.206 74.9 11.9 73 11.1
2004-08-16 07:54:47 51°19.779 2°56.236 75.2 11.9 74 11
2004-08-16 07:54:51 51°19.782 2°56.257 75.4 11.9 73 -999
2004-08-16 07:54:57 51°19.788 2°56.287 75.5 11.9 74 11.1
2004-08-16 07:55:01 51°19.792 2°56.307 75.6 12 73 11
2004-08-16 07:55:07 51°19.797 2°56.338 75.6 11.9 73 9.7
2004-08-16 07:55:13 51°19.803 2°56.368 75.4 11.9 72 11
2004-08-16 07:55:16 51°19.806 2°56.383 74.7 11.9 72 11
2004-08-16 07:55:20 51°19.81 2°56.403 74.4 11.9 72 11
2004-08-16 07:55:27 51°19.818 2°56.439 74.3 11.9 73 11
2004-08-16 07:55:31 51°19.822 2°56.459 74.3 11.9 72 11
2004-08-16 07:55:37 51°19.828 2°56.489 74 11.9 73 11
2004-08-16 07:55:42 51°19.833 2°56.514 74.1 12 73 11
2004-08-16 07:55:48 51°19.838 2°56.545 74.7 12 73 11
2004-08-16 07:55:51 51°19.841 2°56.56 74.9 11.9 74 11
2004-08-16 07:55:56 51°19.845 2°56.585 75.3 11.9 74 11
2004-08-16 07:56:00 51°19.849 2°56.606 75.5 11.9 74 11
2004-08-16 07:56:08 51°19.857 2°56.646 75.4 11.9 74 11
2004-08-16 07:56:12 51°19.86 2°56.666 75.1 11.9 73 11
2004-08-16 07:56:16 51°19.864 2°56.686 74.7 11.9 73 11
2004-08-16 07:56:23 51°19.871 2°56.722 74.7 11.9 73 11
2004-08-16 07:56:28 51°19.876 2°56.747 74.1 11.9 72 10.8
2004-08-16 07:56:31 51°19.88 2°56.762 73.7 11.9 72 11
2004-08-16 07:56:36 51°19.885 2°56.787 73.6 11.9 72 11
2004-08-16 07:56:44 51°19.893 2°56.827 73.7 11.9 72 11
2004-08-16 07:56:51 51°19.9 2°56.862 73.9 11.9 72 11
2004-08-16 07:56:56 51°19.905 2°56.887 74.5 11.9 73 10.9
2004-08-16 07:57:01 51°19.91 2°56.912 74.9 11.9 73 10.9
2004-08-16 07:57:04 51°19.912 2°56.928 75.1 11.9 74 10.7
2004-08-16 07:57:11 51°19.919 2°56.963 75 11.9 72 10.9
2004-08-16 07:57:16 51°19.924 2°56.988 73.9 11.9 72 10.9
2004-08-16 07:57:20 51°19.929 2°57.008 73.8 11.9 71 10.9
2004-08-16 07:57:24 51°19.933 2°57.027 73.4 11.9 71 10.9
2004-08-16 07:57:31 51°19.941 2°57.062 73 11.9 71 10.9
2004-08-16 07:57:36 51°19.946 2°57.087 73 11.9 71 10.9
2004-08-16 07:57:41 51°19.951 2°57.112 72.8 11.9 70 10.8
2004-08-16 07:57:46 51°19.956 2°57.137 72.6 11.8 72 10.9
2004-08-16 07:57:52 51°19.963 2°57.167 73.3 11.8 72 10.9
2004-08-16 07:57:55 51°19.966 2°57.182 73.7 11.9 72 10.8
2004-08-16 07:58:01 51°19.972 2°57.212 73.9 11.9 72 10.8
2004-08-16 07:58:05 51°19.976 2°57.232 74 11.8 73 10.8
2004-08-16 07:58:11 51°19.982 2°57.262 74.1 11.8 73 10.9
2004-08-16 07:58:17 51°19.988 2°57.292 74.2 11.9 72 10.8
2004-08-16 07:58:20 51°19.991 2°57.306 74 11.8 72 10.8
2004-08-16 07:58:25 51°19.996 2°57.332 73.7 11.8 72 10.8
2004-08-16 07:58:31 51°20.002 2°57.361 73.8 11.8 72 10.8
2004-08-16 07:58:37 51°20.008 2°57.391 73.6 11.9 71 10.8
2004-08-16 07:58:40 51°20.011 2°57.406 73.6 11.9 71 10.8
2004-08-16 07:58:47 51°20.019 2°57.441 73.3 11.8 71 10.8
2004-08-16 07:58:52 51°20.024 2°57.465 73.1 11.8 71 10.8
2004-08-16 07:58:56 51°20.028 2°57.485 73.2 11.8 72 10.7
2004-08-16 07:59:01 51°20.033 2°57.51 73.9 11.9 72 10.8
2004-08-16 07:59:05 51°20.037 2°57.53 74 11.8 73 10.8
2004-08-16 07:59:11 51°20.043 2°57.56 74 11.8 72 10.7
2004-08-16 07:59:17 51°20.049 2°57.59 74.4 11.8 72 10.7
2004-08-16 07:59:20 51°20.052 2°57.605 74.4 11.8 73 10.7
2004-08-16 07:59:26 51°20.058 2°57.635 74.3 11.8 72 10.7
2004-08-16 07:59:31 51°20.062 2°57.66 74.4 11.8 73 10.7
2004-08-16 07:59:36 51°20.067 2°57.685 74.2 11.8 73 10.7
2004-08-16 07:59:41 51°20.073 2°57.71 74.2 11.8 72 10.6
2004-08-16 07:59:46 51°20.078 2°57.735 73.9 11.8 72 10.6
2004-08-16 07:59:51 51°20.083 2°57.759 73.9 11.8 72 10.6
2004-08-16 07:59:56 51°20.088 2°57.785 74 11.8 72 10.7
2004-08-16 08:00:01 51°20.093 2°57.809 74 11.8 72 10.6
2004-08-16 08:00:04 51°20.095 2°57.824 74 11.8 72 10.6
2004-08-16 08:00:12 51°20.103 2°57.864 74.2 11.8 72 10.5
2004-08-16 08:00:17 51°20.108 2°57.889 74.4 11.8 73 10.6
2004-08-16 08:00:21 51°20.112 2°57.909 74.7 11.8 73 10.5
2004-08-16 08:00:25 51°20.115 2°57.93 74.9 11.8 74 10.5
2004-08-16 08:00:31 51°20.121 2°57.96 75.2 11.8 73 10.5
2004-08-16 08:00:37 51°20.127 2°57.99 75 11.8 74 10.5
2004-08-16 08:00:41 51°20.13 2°58.01 75 11.8 73 10.5
2004-08-16 08:00:46 51°20.135 2°58.035 74.7 11.8 73 10.5
2004-08-16 08:00:52 51°20.141 2°58.065 74.7 11.8 73 10.5
2004-08-16 08:00:56 51°20.145 2°58.085 74.1 11.8 72 10.5
2004-08-16 08:01:00 51°20.149 2°58.104 74 11.8 73 10.5
2004-08-16 08:01:07 51°20.156 2°58.139 73.8 11.8 72 10.5
2004-08-16 08:01:12 51°20.161 2°58.164 73.5 11.8 72 10.5
2004-08-16 08:01:16 51°20.165 2°58.184 73.9 11.8 73 10.5
2004-08-16 08:01:21 51°20.17 2°58.209 74 11.8 73 10.5
2004-08-16 08:01:25 51°20.173 2°58.229 74.2 11.8 74 10.5
2004-08-16 08:01:32 51°20.18 2°58.264 74.7 11.8 74 10.4
2004-08-16 08:01:36 51°20.184 2°58.284 75.1 11.8 74 10.4
2004-08-16 08:01:40 51°20.187 2°58.305 75.1 11.8 74 10.4
2004-08-16 08:01:44 51°20.191 2°58.325 75.2 11.8 74 10.5
2004-08-16 08:01:52 51°20.198 2°58.365 75.6 11.8 74 10.4
2004-08-16 08:01:57 51°20.203 2°58.39 75.1 11.8 74 10.4
2004-08-16 08:02:01 51°20.206 2°58.41 75 11.8 73 10.2
2004-08-16 08:02:05 51°20.21 2°58.43 74.6 11.8 73 10.3
2004-08-16 08:02:12 51°20.217 2°58.464 74.4 11.8 72 10.4
2004-08-16 08:02:17 51°20.222 2°58.49 74 11.8 73 10.4
2004-08-16 08:02:20 51°20.225 2°58.504 74 11.8 72 10.4
2004-08-16 08:02:24 51°20.229 2°58.524 74 11.9 73 10.3
2004-08-16 08:02:33 51°20.238 2°58.569 73.8 11.8 72 10.3
2004-08-16 08:02:40 51°20.245 2°58.604 73.6 11.8 72 10.3
2004-08-16 08:02:45 51°20.25 2°58.629 73.7 11.9 72 10.3
2004-08-16 08:02:49 51°20.254 2°58.649 73.9 11.8 73 10.3
2004-08-16 08:02:52 51°20.256 2°58.664 74.4 11.8 73 10.2
2004-08-16 08:03:00 51°20.263 2°58.705 75.2 11.8 74 10.3
2004-08-16 08:03:05 51°20.268 2°58.73 75.5 11.8 74 10.3
2004-08-16 08:03:08 51°20.271 2°58.745 75.6 11.8 75 10.2
2004-08-16 08:03:11 51°20.273 2°58.76 75.8 11.8 74 10.2
2004-08-16 08:03:20 51°20.282 2°58.805 75.4 11.8 73 10.2
2004-08-16 08:03:24 51°20.285 2°58.825 74.8 11.8 73 10.2
2004-08-16 08:03:29 51°20.29 2°58.85 74.7 11.8 73 10.2
2004-08-16 08:03:34 51°20.295 2°58.875 74.4 11.8 73 10.3
2004-08-16 08:03:39 51°20.3 2°58.9 74.3 11.8 72 10.2
2004-08-16 08:03:45 51°20.306 2°58.93 74 11.8 73 10.2
2004-08-16 08:03:49 51°20.31 2°58.95 73.9 11.8 72 10.2
2004-08-16 08:03:53 51°20.313 2°58.97 73.8 11.8 72 10.2
2004-08-16 08:04:00 51°20.32 2°59.005 74 11.8 73 10.2
2004-08-16 08:04:04 51°20.324 2°59.025 74.2 11.9 73 10.1
2004-08-16 08:04:08 51°20.328 2°59.045 74 11.8 73 10.2
2004-08-16 08:04:11 51°20.331 2°59.06 74.1 11.8 72 10.2
2004-08-16 08:04:20 51°20.339 2°59.105 74.4 11.8 74 10
2004-08-16 08:04:25 51°20.344 2°59.13 74.6 11.8 73 10.2
2004-08-16 08:04:29 51°20.348 2°59.15 74.7 11.9 74 10.2
2004-08-16 08:04:33 51°20.352 2°59.17 74.8 11.8 73 10.2
2004-08-16 08:04:39 51°20.357 2°59.2 75 11.8 74 10.2
2004-08-16 08:04:45 51°20.363 2°59.23 75 11.8 73 10.2
2004-08-16 08:04:49 51°20.367 2°59.25 74.6 11.8 73 10.2
2004-08-16 08:04:54 51°20.371 2°59.275 74.6 11.8 73 9
2004-08-16 08:05:05 51°20.382 2°59.33 74.4 11.8 73 10.2
2004-08-16 08:05:12 51°20.389 2°59.365 74.4 11.8 73 10.1
2004-08-16 08:05:16 51°20.393 2°59.385 74.1 11.8 73 10.2
2004-08-16 08:05:20 51°20.397 2°59.405 74 11.8 72 10.2
2004-08-16 08:05:25 51°20.402 2°59.429 73.6 11.8 73 10.2
2004-08-16 08:05:32 51°20.409 2°59.464 73.6 11.8 72 10.1
2004-08-16 08:05:36 51°20.413 2°59.484 73.8 11.9 73 10.1
2004-08-16 08:05:41 51°20.418 2°59.51 73.8 11.9 72 10.1
2004-08-16 08:05:45 51°20.422 2°59.529 73.8 11.8 72 10.1
2004-08-16 08:05:52 51°20.429 2°59.564 73.7 11.9 72 10.1
2004-08-16 08:05:57 51°20.434 2°59.589 73.8 11.9 73 10.1
2004-08-16 08:06:01 51°20.438 2°59.61 74.2 11.9 74 10
2004-08-16 08:06:05 51°20.442 2°59.63 75 11.9 74 10
2004-08-16 08:06:11 51°20.447 2°59.66 75 11.9 74 10.1
2004-08-16 08:06:17 51°20.453 2°59.691 74.8 11.9 73 10
2004-08-16 08:06:21 51°20.457 2°59.711 74.7 11.9 73 9.9
2004-08-16 08:06:24 51°20.46 2°59.726 74.3 12 73 10
2004-08-16 08:06:32 51°20.467 2°59.766 74.1 12 73 10
2004-08-16 08:06:36 51°20.471 2°59.786 74 11.9 74 10
2004-08-16 08:06:40 51°20.475 2°59.807 74.4 11.9 74 9.8
2004-08-16 08:06:45 51°20.479 2°59.832 74.7 11.9 74 10
2004-08-16 08:06:52 51°20.486 2°59.867 74.7 11.9 74 10
2004-08-16 08:06:56 51°20.49 2°59.888 74.7 11.9 74 10
2004-08-16 08:07:00 51°20.494 2°59.908 74.4 11.9 72 10
2004-08-16 08:07:04 51°20.498 2°59.928 74 11.9 73 10
2004-08-16 08:07:11 51°20.505 2°59.963 73.4 11.9 71 10.1
2004-08-16 08:07:16 51°20.51 2°59.988 73 11.9 72 10
2004-08-16 08:07:21 51°20.515 3°0.013 73.5 11.9 73 10
2004-08-16 08:07:26 51°20.52 3°0.038 73.9 11.9 73 10
2004-08-16 08:07:31 51°20.524 3°0.063 74.1 11.9 74 10
2004-08-16 08:07:36 51°20.529 3°0.089 74.8 11.9 74 9.6
2004-08-16 08:07:41 51°20.533 3°0.114 75.2 11.9 74 10
2004-08-16 08:07:46 51°20.538 3°0.14 75.2 12 74 10
2004-08-16 08:07:51 51°20.542 3°0.165 75.3 12 74 10
2004-08-16 08:07:56 51°20.547 3°0.19 75 11.9 73 9.9
2004-08-16 08:08:02 51°20.552 3°0.221 74.9 11.9 74 9.9
2004-08-16 08:08:06 51°20.556 3°0.241 74.4 11.9 72 9.7
2004-08-16 08:08:11 51°20.562 3°0.266 74.1 12 72 10
2004-08-16 08:08:17 51°20.568 3°0.297 73.5 12 72 9.8
2004-08-16 08:08:20 51°20.571 3°0.312 73 12 70 9.9
2004-08-16 08:08:25 51°20.576 3°0.337 72.6 12 72 9.9
2004-08-16 08:08:32 51°20.584 3°0.372 73 12 72 9.9
2004-08-16 08:08:36 51°20.588 3°0.392 73.3 11.9 72 9.9
2004-08-16 08:08:41 51°20.592 3°0.418 73.9 12 73 9.9
2004-08-16 08:08:46 51°20.597 3°0.443 74.5 12 74 9.9
2004-08-16 08:08:52 51°20.602 3°0.474 75.1 12 74 9.9
2004-08-16 08:08:56 51°20.606 3°0.494 75.8 11.9 75 9.9
2004-08-16 08:09:00 51°20.609 3°0.515 75.8 11.9 75 9.8
2004-08-16 08:09:05 51°20.613 3°0.54 76.2 11.9 75 9.7
2004-08-16 08:09:09 51°20.617 3°0.561 76.1 11.9 75 9.8
2004-08-16 08:09:17 51°20.624 3°0.601 75.4 11.9 74 9.8
2004-08-16 08:09:21 51°20.628 3°0.621 74.7 11.8 73 9.8
2004-08-16 08:09:25 51°20.632 3°0.641 74.3 11.9 73 9.8
2004-08-16 08:09:32 51°20.639 3°0.676 73.4 11.9 72 9.8
2004-08-16 08:09:37 51°20.644 3°0.702 73.3 11.8 73 9.8
2004-08-16 08:09:40 51°20.647 3°0.716 73.5 11.9 72 9.8
2004-08-16 08:09:45 51°20.652 3°0.742 73.7 11.9 74 9.7